Terminal Aerodrome Forecast
Issued by NWS

Home | Current Version | Previous Version | Text Only | Print | Product List | Glossary On
Versions: 1 2 3 4 5 6 7 8 9 10 11 12 13 14 15 16 17
000
FTUS46 KSEW 312300 RRA
TAFBLI
TAF
KBLI 312348Z 0100/0124 VRB03KT P6SM SCT100 OVC200
     FM010300 VRB03KT P6SM SCT050 OVC100
     FM010600 VRB03KT P6SM -RA FEW035 BKN050 OVC100
     FM011200 14007KT 5SM -RA BR SCT025 OVC040
     FM011800 17011KT 5SM -RA BR OVC025=

USA.gov is the U.S. government's official web portal to all federal, state and local government web resources and services.